createdAt,value
2022-09-28T00:06:24.551Z,19.40
2022-09-28T00:14:31.897Z,19.30
2022-09-28T00:22:40.106Z,19.10
2022-09-28T00:30:45.383Z,19.00
2022-09-28T00:38:53.629Z,19.10
2022-09-28T00:47:01.430Z,18.90
2022-09-28T00:55:13.485Z,18.50
2022-09-28T01:03:20.147Z,18.50
2022-09-28T01:11:29.003Z,18.50
2022-09-28T01:20:24.724Z,18.50
2022-09-28T01:28:34.416Z,18.20
2022-09-28T01:36:44.096Z,18.20
2022-09-28T01:44:55.403Z,18.10
2022-09-28T01:53:06.534Z,18.20
2022-09-28T02:01:19.173Z,18.10
2022-09-28T02:09:31.767Z,18.00
2022-09-28T02:17:41.972Z,17.50
2022-09-28T02:25:53.530Z,17.70
2022-09-28T02:34:02.712Z,17.80
2022-09-28T02:42:18.849Z,17.80
2022-09-28T02:50:39.701Z,17.90
2022-09-28T02:58:55.555Z,17.80
2022-09-28T03:07:09.246Z,17.90
2022-09-28T03:15:22.114Z,17.90
2022-09-28T03:23:30.112Z,17.50
2022-09-28T03:31:35.588Z,17.60
2022-09-28T03:39:43.939Z,17.80
2022-09-28T03:47:50.971Z,17.90
2022-09-28T03:56:05.075Z,18.00
2022-09-28T04:04:10.833Z,17.90
2022-09-28T04:12:18.818Z,17.80
2022-09-28T04:20:24.229Z,17.50
2022-09-28T04:28:56.686Z,17.60
2022-09-28T04:37:02.266Z,17.90
2022-09-28T04:45:11.791Z,17.80
2022-09-28T04:53:22.021Z,17.70
2022-09-28T05:01:30.603Z,17.90
2022-09-28T05:09:38.850Z,17.90
2022-09-28T05:17:46.987Z,17.60
2022-09-28T05:26:12.007Z,17.70
2022-09-28T05:34:20.042Z,17.90
2022-09-28T05:42:25.351Z,18.20
2022-09-28T05:50:33.493Z,18.30
2022-09-28T05:58:38.795Z,19.30
2022-09-28T06:06:47.110Z,20.10
2022-09-28T06:14:52.692Z,20.70
2022-09-28T06:23:00.628Z,21.10
2022-09-28T06:31:06.204Z,20.90
2022-09-28T06:39:21.619Z,21.30
2022-09-28T06:47:27.029Z,21.80
2022-09-28T06:55:51.494Z,21.90
2022-09-28T07:03:56.838Z,21.10
2022-09-28T07:12:05.167Z,21.20
2022-09-28T07:20:21.526Z,21.40
2022-09-28T07:28:31.315Z,22.40
2022-09-28T07:36:57.503Z,23.00
2022-09-28T07:45:06.326Z,23.10
2022-09-28T07:53:12.006Z,24.10
2022-09-28T08:01:45.864Z,24.30
2022-09-28T08:09:52.891Z,24.40
2022-09-28T08:18:10.422Z,24.80
2022-09-28T08:26:16.277Z,24.80
2022-09-28T08:34:25.914Z,24.90
2022-09-28T08:42:52.277Z,25.50
2022-09-28T08:51:22.127Z,26.50
2022-09-28T08:59:52.074Z,26.90
2022-09-28T09:08:24.320Z,26.90
2022-09-28T09:16:40.900Z,26.40
2022-09-28T09:25:20.003Z,26.90
2022-09-28T09:33:49.458Z,28.20
2022-09-28T09:42:30.455Z,28.50
2022-09-28T09:50:58.487Z,27.50
2022-09-28T09:59:11.478Z,26.60
2022-09-28T10:07:43.604Z,26.40
2022-09-28T10:15:52.871Z,32.20
2022-09-28T10:24:04.161Z,31.10
2022-09-28T10:32:22.036Z,28.90
2022-09-28T10:40:35.905Z,27.20
2022-09-28T10:48:58.545Z,26.20
2022-09-28T10:57:30.042Z,26.00
2022-09-28T11:05:43.491Z,26.40
2022-09-28T11:13:51.367Z,27.00
2022-09-28T11:22:04.583Z,28.10
2022-09-28T11:30:26.639Z,38.00
2022-09-28T11:39:11.385Z,42.60
2022-09-28T11:47:40.572Z,38.80
2022-09-28T11:55:53.686Z,34.50
2022-09-28T12:04:05.596Z,31.90
2022-09-28T12:12:27.652Z,30.60
2022-09-28T12:20:37.466Z,30.40
2022-09-28T12:28:50.329Z,30.10
2022-09-28T12:37:11.250Z,28.90
2022-09-28T12:45:53.191Z,28.20
2022-09-28T12:54:08.943Z,27.90
2022-09-28T13:02:43.772Z,27.20
2022-09-28T13:10:58.176Z,26.30
2022-09-28T13:19:16.208Z,25.60
2022-09-28T13:27:31.939Z,25.30
2022-09-28T13:35:45.513Z,25.90
2022-09-28T13:44:26.674Z,26.00
2022-09-28T13:52:48.265Z,26.30
2022-09-28T14:00:56.799Z,25.80
2022-09-28T14:09:42.263Z,25.00
2022-09-28T14:17:58.542Z,25.20
2022-09-28T14:26:30.264Z,25.20
2022-09-28T14:34:39.190Z,25.60
2022-09-28T14:43:25.472Z,25.80
2022-09-28T14:52:09.572Z,25.90
2022-09-28T15:00:29.384Z,25.50
2022-09-28T15:08:42.742Z,24.80
2022-09-28T15:16:50.758Z,25.00
2022-09-28T15:25:02.434Z,24.80
2022-09-28T15:33:42.085Z,24.70
2022-09-28T15:41:48.985Z,24.70
2022-09-28T15:50:02.952Z,23.90
2022-09-28T15:58:10.805Z,23.90
2022-09-28T16:06:19.290Z,24.00
2022-09-28T16:14:28.993Z,23.90
2022-09-28T16:22:36.956Z,23.60
2022-09-28T16:31:05.614Z,23.60
2022-09-28T16:39:12.145Z,23.40
2022-09-28T16:47:20.745Z,23.40
2022-09-28T16:55:40.086Z,23.20
2022-09-28T17:03:50.335Z,23.10
2022-09-28T17:11:57.072Z,22.90
2022-09-28T17:20:10.354Z,22.80
2022-09-28T17:28:19.906Z,22.70
2022-09-28T17:36:28.203Z,22.40
2022-09-28T17:44:33.644Z,21.90
2022-09-28T17:52:41.688Z,21.90
2022-09-28T18:00:47.058Z,21.90
2022-09-28T18:08:55.074Z,21.90
2022-09-28T18:17:00.401Z,21.60
2022-09-28T18:25:11.207Z,21.00
2022-09-28T18:33:17.639Z,21.20
2022-09-28T18:41:25.946Z,21.20
2022-09-28T18:49:33.775Z,21.20
2022-09-28T18:57:46.902Z,20.80
2022-09-28T19:05:52.126Z,20.60
2022-09-28T19:14:00.137Z,20.40
2022-09-28T19:22:05.483Z,20.50
2022-09-28T19:30:17.000Z,20.70
2022-09-28T19:38:22.334Z,20.00
2022-09-28T19:46:31.347Z,20.10
2022-09-28T19:54:37.611Z,19.80
2022-09-28T20:02:45.590Z,19.90
2022-09-28T20:10:54.835Z,20.10
2022-09-28T20:19:04.910Z,20.00
2022-09-28T20:27:10.157Z,19.50
2022-09-28T20:35:30.323Z,19.30
2022-09-28T20:43:38.122Z,19.30
2022-09-28T20:51:46.180Z,19.60
2022-09-28T20:59:54.737Z,19.50
2022-09-28T21:08:02.906Z,19.10
2022-09-28T21:16:09.140Z,18.90
2022-09-28T21:24:17.136Z,18.90
2022-09-28T21:32:23.326Z,18.80
2022-09-28T21:40:31.514Z,19.20
2022-09-28T21:48:36.836Z,19.30
2022-09-28T21:56:44.726Z,19.60
2022-09-28T22:04:49.955Z,19.60
2022-09-28T22:12:57.791Z,19.60
2022-09-28T22:21:03.157Z,19.60
2022-09-28T22:29:12.172Z,19.70
2022-09-28T22:37:17.453Z,19.40
2022-09-28T22:45:25.582Z,19.40
2022-09-28T22:53:31.443Z,19.30
2022-09-28T23:01:39.326Z,19.30
2022-09-28T23:09:44.823Z,19.40
2022-09-28T23:17:54.640Z,19.20
2022-09-28T23:26:00.391Z,19.00
2022-09-28T23:34:09.214Z,19.00
2022-09-28T23:42:14.422Z,19.00
2022-09-28T23:50:22.312Z,18.80
2022-09-28T23:58:27.693Z,19.10
